sensor_id;sensor_type;location;lat;lon;timestamp;pressure;altitude;pressure_sealevel;temperature;humidity
62038;BME280;47991;42.974;12.082;2023-07-28T00:02:05;97698.70;;;17.75;65.65
62038;BME280;47991;42.974;12.082;2023-07-28T00:04:34;97697.59;;;17.73;65.53
62038;BME280;47991;42.974;12.082;2023-07-28T00:07:02;97700.07;;;17.67;65.76
62038;BME280;47991;42.974;12.082;2023-07-28T00:09:29;97701.55;;;17.60;67.09
62038;BME280;47991;42.974;12.082;2023-07-28T00:11:57;97703.50;;;17.54;66.80
62038;BME280;47991;42.974;12.082;2023-07-28T00:14:26;97699.29;;;17.50;66.75
62038;BME280;47991;42.974;12.082;2023-07-28T00:16:54;97701.23;;;17.44;67.12
62038;BME280;47991;42.974;12.082;2023-07-28T00:19:21;97698.51;;;17.41;67.03
62038;BME280;47991;42.974;12.082;2023-07-28T00:21:49;97693.44;;;17.39;67.52
62038;BME280;47991;42.974;12.082;2023-07-28T00:24:17;97691.68;;;17.39;68.19
62038;BME280;47991;42.974;12.082;2023-07-28T00:26:44;97691.60;;;17.44;68.58
62038;BME280;47991;42.974;12.082;2023-07-28T00:29:11;97686.05;;;17.50;68.23
62038;BME280;47991;42.974;12.082;2023-07-28T00:31:38;97684.05;;;17.56;68.59
62038;BME280;47991;42.974;12.082;2023-07-28T00:34:05;97683.34;;;17.60;68.77
62038;BME280;47991;42.974;12.082;2023-07-28T00:36:31;97676.11;;;17.64;68.36
62038;BME280;47991;42.974;12.082;2023-07-28T00:38:58;97672.03;;;17.66;68.41
62038;BME280;47991;42.974;12.082;2023-07-28T00:41:28;97676.73;;;17.60;69.27
62038;BME280;47991;42.974;12.082;2023-07-28T00:43:54;97675.73;;;17.55;69.87
62038;BME280;47991;42.974;12.082;2023-07-28T00:46:21;97674.63;;;17.56;69.28
62038;BME280;47991;42.974;12.082;2023-07-28T00:48:48;97674.80;;;17.59;69.26
62038;BME280;47991;42.974;12.082;2023-07-28T00:51:15;97674.77;;;17.59;69.47
62038;BME280;47991;42.974;12.082;2023-07-28T00:53:43;97663.73;;;17.59;69.57
62038;BME280;47991;42.974;12.082;2023-07-28T00:56:10;97671.13;;;17.57;69.17
62038;BME280;47991;42.974;12.082;2023-07-28T00:58:37;97668.17;;;17.53;69.62
62038;BME280;47991;42.974;12.082;2023-07-28T01:01:04;97667.59;;;17.57;70.28
62038;BME280;47991;42.974;12.082;2023-07-28T01:03:31;97672.27;;;17.60;71.91
62038;BME280;47991;42.974;12.082;2023-07-28T01:09:21;97670.27;;;17.72;75.08
62038;BME280;47991;42.974;12.082;2023-07-28T01:11:55;97663.08;;;17.79;72.60
62038;BME280;47991;42.974;12.082;2023-07-28T01:14:22;97661.05;;;17.92;72.07
62038;BME280;47991;42.974;12.082;2023-07-28T01:16:52;97657.81;;;18.02;72.62
62038;BME280;47991;42.974;12.082;2023-07-28T01:19:21;97652.31;;;18.07;73.59
62038;BME280;47991;42.974;12.082;2023-07-28T01:21:59;97647.61;;;18.11;73.29
62038;BME280;47991;42.974;12.082;2023-07-28T01:25:04;97637.09;;;18.19;73.23
62038;BME280;47991;42.974;12.082;2023-07-28T01:27:37;97638.34;;;18.25;73.77
62038;BME280;47991;42.974;12.082;2023-07-28T01:30:11;97645.59;;;18.26;73.41
62038;BME280;47991;42.974;12.082;2023-07-28T01:32:38;97646.89;;;18.28;73.96
62038;BME280;47991;42.974;12.082;2023-07-28T01:35:06;97641.28;;;18.27;74.67
62038;BME280;47991;42.974;12.082;2023-07-28T01:37:33;97641.02;;;18.28;74.06
62038;BME280;47991;42.974;12.082;2023-07-28T01:40:00;97642.52;;;18.33;73.35
62038;BME280;47991;42.974;12.082;2023-07-28T01:42:26;97642.45;;;18.40;73.34
62038;BME280;47991;42.974;12.082;2023-07-28T01:44:53;97639.63;;;18.45;73.42
62038;BME280;47991;42.974;12.082;2023-07-28T01:47:20;97631.11;;;18.46;73.65
62038;BME280;47991;42.974;12.082;2023-07-28T01:49:47;97628.85;;;18.48;74.18
62038;BME280;47991;42.974;12.082;2023-07-28T01:52:13;97629.77;;;18.54;74.58
62038;BME280;47991;42.974;12.082;2023-07-28T01:54:40;97638.34;;;18.57;75.27
62038;BME280;47991;42.974;12.082;2023-07-28T01:57:07;97640.87;;;18.57;75.00
62038;BME280;47991;42.974;12.082;2023-07-28T01:59:34;97639.23;;;18.57;75.72
62038;BME280;47991;42.974;12.082;2023-07-28T02:02:01;97640.02;;;18.56;75.17
62038;BME280;47991;42.974;12.082;2023-07-28T02:04:28;97637.46;;;18.54;75.21
62038;BME280;47991;42.974;12.082;2023-07-28T02:06:54;97636.79;;;18.53;75.52
62038;BME280;47991;42.974;12.082;2023-07-28T02:09:21;97638.44;;;18.53;75.57
62038;BME280;47991;42.974;12.082;2023-07-28T02:11:48;97642.04;;;18.46;75.13
62038;BME280;47991;42.974;12.082;2023-07-28T02:14:15;97642.63;;;18.45;75.93
62038;BME280;47991;42.974;12.082;2023-07-28T02:16:42;97637.20;;;18.43;76.19
62038;BME280;47991;42.974;12.082;2023-07-28T02:19:09;97630.27;;;18.48;75.76
62038;BME280;47991;42.974;12.082;2023-07-28T02:21:36;97625.77;;;18.52;75.54
62038;BME280;47991;42.974;12.082;2023-07-28T02:24:04;97627.07;;;18.40;78.08
62038;BME280;47991;42.974;12.082;2023-07-28T02:26:30;97628.23;;;18.06;77.34
62038;BME280;47991;42.974;12.082;2023-07-28T02:28:57;97632.14;;;17.98;77.08
62038;BME280;47991;42.974;12.082;2023-07-28T02:31:24;97629.52;;;17.75;77.52
62038;BME280;47991;42.974;12.082;2023-07-28T02:33:51;97622.20;;;17.66;77.74
62038;BME280;47991;42.974;12.082;2023-07-28T02:36:18;97617.27;;;17.68;76.87
62038;BME280;47991;42.974;12.082;2023-07-28T02:38:45;97616.03;;;17.71;76.67
62038;BME280;47991;42.974;12.082;2023-07-28T02:41:11;97620.25;;;17.74;76.20
62038;BME280;47991;42.974;12.082;2023-07-28T02:43:38;97622.36;;;17.75;76.96
62038;BME280;47991;42.974;12.082;2023-07-28T02:46:05;97619.08;;;17.73;76.38
62038;BME280;47991;42.974;12.082;2023-07-28T02:48:32;97619.02;;;17.74;76.05
62038;BME280;47991;42.974;12.082;2023-07-28T02:50:59;97613.27;;;17.78;75.74
62038;BME280;47991;42.974;12.082;2023-07-28T02:53:26;97617.16;;;17.82;76.20
62038;BME280;47991;42.974;12.082;2023-07-28T02:55:52;97619.16;;;17.84;75.82
62038;BME280;47991;42.974;12.082;2023-07-28T02:58:20;97623.17;;;17.86;75.73
62038;BME280;47991;42.974;12.082;2023-07-28T03:00:47;97624.48;;;17.87;75.55
62038;BME280;47991;42.974;12.082;2023-07-28T03:03:14;97629.70;;;17.87;75.37
62038;BME280;47991;42.974;12.082;2023-07-28T03:05:40;97623.19;;;17.76;74.84
62038;BME280;47991;42.974;12.082;2023-07-28T03:08:07;97625.06;;;17.66;75.39
62038;BME280;47991;42.974;12.082;2023-07-28T03:10:34;97629.88;;;17.57;75.61
62038;BME280;47991;42.974;12.082;2023-07-28T03:13:01;97628.05;;;17.54;76.17
62038;BME280;47991;42.974;12.082;2023-07-28T03:15:28;97629.70;;;17.51;75.87
62038;BME280;47991;42.974;12.082;2023-07-28T03:17:55;97635.27;;;17.53;75.83
62038;BME280;47991;42.974;12.082;2023-07-28T03:20:22;97634.11;;;17.55;75.64
62038;BME280;47991;42.974;12.082;2023-07-28T03:22:49;97628.02;;;17.55;75.28
62038;BME280;47991;42.974;12.082;2023-07-28T03:25:16;97633.46;;;17.54;75.72
62038;BME280;47991;42.974;12.082;2023-07-28T03:27:43;97640.38;;;17.48;75.66
62038;BME280;47991;42.974;12.082;2023-07-28T03:30:10;97642.14;;;17.46;75.47
62038;BME280;47991;42.974;12.082;2023-07-28T03:32:37;97637.86;;;17.49;75.39
62038;BME280;47991;42.974;12.082;2023-07-28T03:35:04;97630.83;;;17.50;75.19
62038;BME280;47991;42.974;12.082;2023-07-28T03:37:34;97630.23;;;17.48;75.52
62038;BME280;47991;42.974;12.082;2023-07-28T03:40:01;97634.41;;;17.44;75.71
62038;BME280;47991;42.974;12.082;2023-07-28T03:42:28;97637.98;;;17.40;75.36
62038;BME280;47991;42.974;12.082;2023-07-28T03:44:55;97634.77;;;17.31;75.44
62038;BME280;47991;42.974;12.082;2023-07-28T03:47:22;97639.98;;;17.31;75.75
62038;BME280;47991;42.974;12.082;2023-07-28T03:49:49;97637.25;;;17.31;76.24
62038;BME280;47991;42.974;12.082;2023-07-28T03:52:16;97636.61;;;17.30;75.79
62038;BME280;47991;42.974;12.082;2023-07-28T03:54:43;97634.09;;;17.18;76.30
62038;BME280;47991;42.974;12.082;2023-07-28T03:57:10;97637.65;;;17.15;76.44
62038;BME280;47991;42.974;12.082;2023-07-28T03:59:37;97639.48;;;17.14;76.95
62038;BME280;47991;42.974;12.082;2023-07-28T04:02:04;97640.34;;;17.12;77.16
62038;BME280;47991;42.974;12.082;2023-07-28T04:04:31;97642.14;;;17.08;76.75
62038;BME280;47991;42.974;12.082;2023-07-28T04:06:57;97643.88;;;17.18;76.63
62038;BME280;47991;42.974;12.082;2023-07-28T04:09:24;97646.80;;;17.24;76.74
62038;BME280;47991;42.974;12.082;2023-07-28T04:11:51;97651.96;;;17.30;76.91
62038;BME280;47991;42.974;12.082;2023-07-28T04:14:18;97656.24;;;17.36;76.31
62038;BME280;47991;42.974;12.082;2023-07-28T04:16:45;97656.52;;;17.44;76.90
62038;BME280;47991;42.974;12.082;2023-07-28T04:19:12;97655.85;;;17.44;77.68
62038;BME280;47991;42.974;12.082;2023-07-28T04:21:39;97654.40;;;17.28;78.35
62038;BME280;47991;42.974;12.082;2023-07-28T04:24:09;97661.80;;;17.27;78.73
62038;BME280;47991;42.974;12.082;2023-07-28T04:26:36;97663.39;;;17.24;78.72
62038;BME280;47991;42.974;12.082;2023-07-28T04:29:03;97664.73;;;17.23;78.95
62038;BME280;47991;42.974;12.082;2023-07-28T04:31:30;97663.95;;;17.27;79.12
62038;BME280;47991;42.974;12.082;2023-07-28T04:33:57;97663.52;;;17.41;78.32
62038;BME280;47991;42.974;12.082;2023-07-28T04:36:24;97662.36;;;17.48;78.69
62038;BME280;47991;42.974;12.082;2023-07-28T04:38:51;97657.00;;;17.55;78.48
62038;BME280;47991;42.974;12.082;2023-07-28T04:41:18;97658.54;;;17.62;78.00
62038;BME280;47991;42.974;12.082;2023-07-28T04:43:45;97671.79;;;17.77;77.77
62038;BME280;47991;42.974;12.082;2023-07-28T04:46:12;97677.38;;;17.89;77.99
62038;BME280;47991;42.974;12.082;2023-07-28T04:48:38;97674.64;;;17.93;78.26
62038;BME280;47991;42.974;12.082;2023-07-28T04:51:05;97675.83;;;18.06;78.11
62038;BME280;47991;42.974;12.082;2023-07-28T04:53:32;97668.96;;;18.16;78.51
62038;BME280;47991;42.974;12.082;2023-07-28T04:55:59;97664.45;;;18.16;78.45
62038;BME280;47991;42.974;12.082;2023-07-28T04:58:26;97667.21;;;18.21;77.96
62038;BME280;47991;42.974;12.082;2023-07-28T05:00:53;97668.16;;;18.17;77.88
62038;BME280;47991;42.974;12.082;2023-07-28T05:03:20;97675.02;;;18.28;77.03
62038;BME280;47991;42.974;12.082;2023-07-28T05:05:47;97676.30;;;18.51;76.28
62038;BME280;47991;42.974;12.082;2023-07-28T05:08:14;97685.37;;;18.69;75.84
62038;BME280;47991;42.974;12.082;2023-07-28T05:10:41;97685.64;;;18.77;75.37
62038;BME280;47991;42.974;12.082;2023-07-28T05:13:11;97684.89;;;18.92;74.56
62038;BME280;47991;42.974;12.082;2023-07-28T05:15:38;97686.44;;;19.10;74.69
62038;BME280;47991;42.974;12.082;2023-07-28T05:18:05;97684.29;;;19.62;74.01
62038;BME280;47991;42.974;12.082;2023-07-28T05:20:32;97688.56;;;20.40;71.93
62038;BME280;47991;42.974;12.082;2023-07-28T05:22:59;97685.74;;;20.83;70.72
62038;BME280;47991;42.974;12.082;2023-07-28T05:25:26;97685.95;;;21.27;69.89
62038;BME280;47991;42.974;12.082;2023-07-28T05:27:53;97691.35;;;22.31;67.88
62038;BME280;47991;42.974;12.082;2023-07-28T05:30:20;97695.40;;;23.20;63.20
62038;BME280;47991;42.974;12.082;2023-07-28T05:32:47;97691.05;;;23.84;61.41
62038;BME280;47991;42.974;12.082;2023-07-28T05:35:15;97689.91;;;24.49;61.25
62038;BME280;47991;42.974;12.082;2023-07-28T05:37:42;97694.64;;;25.01;57.73
62038;BME280;47991;42.974;12.082;2023-07-28T05:40:09;97698.04;;;25.27;56.74
62038;BME280;47991;42.974;12.082;2023-07-28T05:42:37;97696.39;;;25.70;55.17
62038;BME280;47991;42.974;12.082;2023-07-28T05:45:04;97695.36;;;26.01;53.41
62038;BME280;47991;42.974;12.082;2023-07-28T05:47:31;97697.04;;;26.65;53.89
62038;BME280;47991;42.974;12.082;2023-07-28T05:49:58;97699.91;;;27.20;53.61
62038;BME280;47991;42.974;12.082;2023-07-28T05:52:26;97695.22;;;27.63;49.63
62038;BME280;47991;42.974;12.082;2023-07-28T05:54:52;97689.40;;;27.97;49.88
62038;BME280;47991;42.974;12.082;2023-07-28T05:57:21;97681.73;;;28.21;48.34
62038;BME280;47991;42.974;12.082;2023-07-28T05:59:47;97681.92;;;28.72;47.79
62038;BME280;47991;42.974;12.082;2023-07-28T06:02:15;97681.73;;;29.11;47.49
62038;BME280;47991;42.974;12.082;2023-07-28T06:04:42;97684.42;;;29.15;46.98
62038;BME280;47991;42.974;12.082;2023-07-28T06:07:10;97683.21;;;29.05;46.99
62038;BME280;47991;42.974;12.082;2023-07-28T06:09:36;97680.98;;;28.88;46.34
62038;BME280;47991;42.974;12.082;2023-07-28T06:12:05;97683.20;;;28.30;47.58
62038;BME280;47991;42.974;12.082;2023-07-28T06:14:32;97685.21;;;27.72;49.40
62038;BME280;47991;42.974;12.082;2023-07-28T06:16:59;97688.24;;;27.48;50.70
62038;BME280;47991;42.974;12.082;2023-07-28T06:19:26;97695.56;;;27.18;51.37
62038;BME280;47991;42.974;12.082;2023-07-28T06:21:55;97694.77;;;26.29;53.58
62038;BME280;47991;42.974;12.082;2023-07-28T06:24:22;97700.05;;;25.72;55.11
62038;BME280;47991;42.974;12.082;2023-07-28T06:26:49;97695.77;;;25.35;56.79
62038;BME280;47991;42.974;12.082;2023-07-28T06:29:16;97700.67;;;24.54;58.95
62038;BME280;47991;42.974;12.082;2023-07-28T06:31:43;97701.52;;;24.61;58.62
62038;BME280;47991;42.974;12.082;2023-07-28T06:34:10;97702.73;;;24.68;58.92
62038;BME280;47991;42.974;12.082;2023-07-28T06:36:37;97704.84;;;24.60;59.33
62038;BME280;47991;42.974;12.082;2023-07-28T06:39:04;97708.48;;;24.21;60.71
62038;BME280;47991;42.974;12.082;2023-07-28T06:41:31;97715.16;;;24.07;60.70
62038;BME280;47991;42.974;12.082;2023-07-28T06:43:58;97708.39;;;24.16;61.16
62038;BME280;47991;42.974;12.082;2023-07-28T06:46:24;97711.60;;;23.95;62.26
62038;BME280;47991;42.974;12.082;2023-07-28T06:48:51;97715.98;;;23.93;63.20
62038;BME280;47991;42.974;12.082;2023-07-28T06:51:20;97722.27;;;23.66;63.84
62038;BME280;47991;42.974;12.082;2023-07-28T06:53:47;97728.09;;;23.64;64.46
62038;BME280;47991;42.974;12.082;2023-07-28T06:56:13;97724.27;;;23.91;63.76
62038;BME280;47991;42.974;12.082;2023-07-28T06:58:40;97716.91;;;24.20;63.52
62038;BME280;47991;42.974;12.082;2023-07-28T07:01:07;97719.27;;;24.18;63.23
62038;BME280;47991;42.974;12.082;2023-07-28T07:03:37;97728.20;;;23.95;64.21
62038;BME280;47991;42.974;12.082;2023-07-28T07:06:04;97737.02;;;23.67;65.71
62038;BME280;47991;42.974;12.082;2023-07-28T07:08:31;97740.90;;;23.60;65.76
62038;BME280;47991;42.974;12.082;2023-07-28T07:10:58;97740.73;;;23.86;64.67
62038;BME280;47991;42.974;12.082;2023-07-28T07:13:25;97736.09;;;24.18;64.94
62038;BME280;47991;42.974;12.082;2023-07-28T07:15:51;97743.20;;;24.47;63.36
62038;BME280;47991;42.974;12.082;2023-07-28T07:18:18;97745.46;;;24.61;63.08
62038;BME280;47991;42.974;12.082;2023-07-28T07:20:45;97747.66;;;24.90;62.26
62038;BME280;47991;42.974;12.082;2023-07-28T07:23:12;97742.88;;;25.01;61.38
62038;BME280;47991;42.974;12.082;2023-07-28T07:25:39;97742.63;;;25.12;60.91
62038;BME280;47991;42.974;12.082;2023-07-28T07:28:06;97740.30;;;25.18;60.16
62038;BME280;47991;42.974;12.082;2023-07-28T07:30:34;97743.41;;;25.37;60.22
62038;BME280;47991;42.974;12.082;2023-07-28T07:33:00;97744.55;;;25.36;59.84
62038;BME280;47991;42.974;12.082;2023-07-28T07:35:28;97751.32;;;25.06;60.67
62038;BME280;47991;42.974;12.082;2023-07-28T07:37:55;97744.59;;;25.07;59.79
62038;BME280;47991;42.974;12.082;2023-07-28T07:40:21;97744.06;;;25.08;59.66
62038;BME280;47991;42.974;12.082;2023-07-28T07:42:49;97739.94;;;25.12;59.64
62038;BME280;47991;42.974;12.082;2023-07-28T07:45:17;97739.58;;;25.31;59.21
62038;BME280;47991;42.974;12.082;2023-07-28T07:47:44;97740.23;;;25.52;58.68
62038;BME280;47991;42.974;12.082;2023-07-28T07:50:11;97746.74;;;25.70;58.58
62038;BME280;47991;42.974;12.082;2023-07-28T07:52:38;97747.88;;;25.82;57.25
62038;BME280;47991;42.974;12.082;2023-07-28T07:55:05;97753.80;;;25.58;57.93
62038;BME280;47991;42.974;12.082;2023-07-28T07:57:32;97752.08;;;25.71;57.69
62038;BME280;47991;42.974;12.082;2023-07-28T07:59:59;97749.55;;;25.91;58.13
62038;BME280;47991;42.974;12.082;2023-07-28T08:02:26;97758.91;;;25.96;57.67
62038;BME280;47991;42.974;12.082;2023-07-28T08:04:53;97763.20;;;25.94;57.47
62038;BME280;47991;42.974;12.082;2023-07-28T08:07:21;97768.56;;;26.01;56.59
62038;BME280;47991;42.974;12.082;2023-07-28T08:09:49;97771.64;;;25.95;56.21
62038;BME280;47991;42.974;12.082;2023-07-28T08:12:17;97773.63;;;25.85;56.93
62038;BME280;47991;42.974;12.082;2023-07-28T08:14:44;97772.98;;;26.08;56.45
62038;BME280;47991;42.974;12.082;2023-07-28T08:17:13;97776.59;;;26.06;56.86
62038;BME280;47991;42.974;12.082;2023-07-28T08:19:40;97781.50;;;26.04;56.42
62038;BME280;47991;42.974;12.082;2023-07-28T08:22:07;97783.45;;;26.05;56.00
62038;BME280;47991;42.974;12.082;2023-07-28T08:24:34;97785.19;;;26.37;55.71
62038;BME280;47991;42.974;12.082;2023-07-28T08:27:01;97789.35;;;26.10;56.34
62038;BME280;47991;42.974;12.082;2023-07-28T08:29:28;97784.95;;;26.53;56.31
62038;BME280;47991;42.974;12.082;2023-07-28T08:31:55;97786.23;;;26.63;55.42
62038;BME280;47991;42.974;12.082;2023-07-28T08:34:21;97775.46;;;26.17;55.20
62038;BME280;47991;42.974;12.082;2023-07-28T08:36:48;97757.48;;;25.57;56.57
62038;BME280;47991;42.974;12.082;2023-07-28T08:39:17;97756.65;;;25.59;57.05
62038;BME280;47991;42.974;12.082;2023-07-28T08:41:44;97762.96;;;25.65;57.40
62038;BME280;47991;42.974;12.082;2023-07-28T08:44:11;97776.58;;;25.60;56.86
62038;BME280;47991;42.974;12.082;2023-07-28T08:46:38;97785.23;;;25.47;57.09
62038;BME280;47991;42.974;12.082;2023-07-28T08:49:05;97777.04;;;25.49;57.31
62038;BME280;47991;42.974;12.082;2023-07-28T08:51:32;97753.63;;;25.19;58.40
62038;BME280;47991;42.974;12.082;2023-07-28T08:53:59;97757.56;;;24.91;58.19
62038;BME280;47991;42.974;12.082;2023-07-28T08:56:26;97762.96;;;25.05;57.82
62038;BME280;47991;42.974;12.082;2023-07-28T08:58:58;97765.41;;;25.27;57.03
62038;BME280;47991;42.974;12.082;2023-07-28T09:01:26;97772.36;;;25.65;57.29
62038;BME280;47991;42.974;12.082;2023-07-28T09:03:53;97768.22;;;25.85;56.36
62038;BME280;47991;42.974;12.082;2023-07-28T09:06:28;97763.96;;;25.64;56.60
62038;BME280;47991;42.974;12.082;2023-07-28T09:08:57;97755.59;;;25.64;57.10
62038;BME280;47991;42.974;12.082;2023-07-28T09:11:26;97753.38;;;25.73;56.32
62038;BME280;47991;42.974;12.082;2023-07-28T09:13:54;97749.64;;;25.84;56.52
62038;BME280;47991;42.974;12.082;2023-07-28T09:16:22;97751.15;;;26.01;55.88
62038;BME280;47991;42.974;12.082;2023-07-28T09:19:06;97752.97;;;25.91;55.58
62038;BME280;47991;42.974;12.082;2023-07-28T09:21:34;97746.80;;;26.06;54.74
62038;BME280;47991;42.974;12.082;2023-07-28T09:24:04;97735.21;;;26.29;53.88
62038;BME280;47991;42.974;12.082;2023-07-28T09:26:43;97743.31;;;26.64;52.85
62038;BME280;47991;42.974;12.082;2023-07-28T09:29:17;97745.01;;;26.74;52.68
62038;BME280;47991;42.974;12.082;2023-07-28T09:31:46;97751.30;;;26.76;53.65
62038;BME280;47991;42.974;12.082;2023-07-28T09:34:24;97745.79;;;26.92;52.73
62038;BME280;47991;42.974;12.082;2023-07-28T09:36:53;97738.10;;;26.99;52.20
62038;BME280;47991;42.974;12.082;2023-07-28T09:39:20;97739.39;;;27.06;52.34
62038;BME280;47991;42.974;12.082;2023-07-28T09:41:48;97739.25;;;27.07;52.94
62038;BME280;47991;42.974;12.082;2023-07-28T09:44:16;97737.28;;;27.11;51.94
62038;BME280;47991;42.974;12.082;2023-07-28T09:46:51;97733.29;;;27.24;51.49
62038;BME280;47991;42.974;12.082;2023-07-28T09:49:27;97735.00;;;27.53;50.96
62038;BME280;47991;42.974;12.082;2023-07-28T09:51:57;97729.80;;;27.76;50.35
62038;BME280;47991;42.974;12.082;2023-07-28T09:54:29;97724.77;;;27.68;50.34
62038;BME280;47991;42.974;12.082;2023-07-28T09:56:57;97721.58;;;27.84;50.90
62038;BME280;47991;42.974;12.082;2023-07-28T09:59:39;97716.30;;;27.99;51.58
62038;BME280;47991;42.974;12.082;2023-07-28T10:02:07;97714.21;;;28.18;50.60
62038;BME280;47991;42.974;12.082;2023-07-28T10:04:34;97718.08;;;28.25;50.29
62038;BME280;47991;42.974;12.082;2023-07-28T10:07:04;97710.64;;;27.81;50.86
62038;BME280;47991;42.974;12.082;2023-07-28T10:09:31;97706.02;;;28.00;50.15
62038;BME280;47991;42.974;12.082;2023-07-28T10:12:06;97702.14;;;28.30;49.26
62038;BME280;47991;42.974;12.082;2023-07-28T10:14:43;97711.90;;;28.46;49.14
62038;BME280;47991;42.974;12.082;2023-07-28T10:17:16;97713.06;;;28.49;48.33
62038;BME280;47991;42.974;12.082;2023-07-28T10:19:43;97708.14;;;28.37;49.20
62038;BME280;47991;42.974;12.082;2023-07-28T10:22:11;97707.71;;;28.23;49.58
62038;BME280;47991;42.974;12.082;2023-07-28T10:24:51;97707.71;;;27.85;49.78
62038;BME280;47991;42.974;12.082;2023-07-28T10:27:35;97701.85;;;27.71;49.88
62038;BME280;47991;42.974;12.082;2023-07-28T10:30:10;97695.98;;;28.01;49.33
62038;BME280;47991;42.974;12.082;2023-07-28T10:32:47;97698.27;;;27.88;49.71
62038;BME280;47991;42.974;12.082;2023-07-28T10:37:48;97688.40;;;28.20;48.73
62038;BME280;47991;42.974;12.082;2023-07-28T10:42:49;97689.86;;;27.82;49.49
62038;BME280;47991;42.974;12.082;2023-07-28T10:45:16;97686.59;;;27.78;49.63
62038;BME280;47991;42.974;12.082;2023-07-28T10:47:45;97690.52;;;28.10;49.93
62038;BME280;47991;42.974;12.082;2023-07-28T10:50:12;97691.71;;;28.34;48.90
62038;BME280;47991;42.974;12.082;2023-07-28T10:52:43;97695.57;;;28.55;48.26
62038;BME280;47991;42.974;12.082;2023-07-28T10:55:16;97705.48;;;28.09;48.92
62038;BME280;47991;42.974;12.082;2023-07-28T10:57:44;97706.17;;;27.99;49.17
62038;BME280;47991;42.974;12.082;2023-07-28T11:00:14;97701.20;;;27.98;48.89
62038;BME280;47991;42.974;12.082;2023-07-28T11:02:42;97701.69;;;28.02;49.49
62038;BME280;47991;42.974;12.082;2023-07-28T11:05:20;97688.77;;;28.32;48.86
62038;BME280;47991;42.974;12.082;2023-07-28T11:07:49;97689.09;;;28.56;48.57
62038;BME280;47991;42.974;12.082;2023-07-28T11:10:18;97689.41;;;28.62;48.84
62038;BME280;47991;42.974;12.082;2023-07-28T11:12:51;97683.21;;;28.60;48.66
62038;BME280;47991;42.974;12.082;2023-07-28T11:18:31;97681.55;;;28.01;48.09
62038;BME280;47991;42.974;12.082;2023-07-28T11:20:58;97684.13;;;27.74;48.95
62038;BME280;47991;42.974;12.082;2023-07-28T11:23:27;97680.63;;;28.21;48.38
62038;BME280;47991;42.974;12.082;2023-07-28T11:25:55;97666.57;;;28.59;47.27
62038;BME280;47991;42.974;12.082;2023-07-28T11:28:22;97660.67;;;28.56;47.58
62038;BME280;47991;42.974;12.082;2023-07-28T11:30:49;97658.33;;;28.89;47.85
62038;BME280;47991;42.974;12.082;2023-07-28T11:33:16;97661.86;;;29.20;45.90
62038;BME280;47991;42.974;12.082;2023-07-28T11:35:44;97663.80;;;29.13;45.41
62038;BME280;47991;42.974;12.082;2023-07-28T11:38:12;97667.50;;;28.99;45.35
62038;BME280;47991;42.974;12.082;2023-07-28T11:40:41;97660.94;;;28.85;44.99
62038;BME280;47991;42.974;12.082;2023-07-28T11:43:09;97659.89;;;28.53;45.10
62038;BME280;47991;42.974;12.082;2023-07-28T11:45:37;97654.43;;;28.53;45.87
62038;BME280;47991;42.974;12.082;2023-07-28T11:48:05;97655.41;;;28.60;46.00
62038;BME280;47991;42.974;12.082;2023-07-28T11:50:38;97659.58;;;28.55;45.11
62038;BME280;47991;42.974;12.082;2023-07-28T11:53:10;97657.61;;;28.72;45.17
62038;BME280;47991;42.974;12.082;2023-07-28T11:55:38;97657.83;;;28.90;45.44
62038;BME280;47991;42.974;12.082;2023-07-28T11:58:06;97657.14;;;29.02;46.29
62038;BME280;47991;42.974;12.082;2023-07-28T12:00:35;97660.79;;;28.95;45.89
62038;BME280;47991;42.974;12.082;2023-07-28T12:03:06;97662.12;;;29.12;45.64
62038;BME280;47991;42.974;12.082;2023-07-28T12:05:40;97656.85;;;29.17;45.36
62038;BME280;47991;42.974;12.082;2023-07-28T12:08:08;97664.98;;;28.87;46.09
62038;BME280;47991;42.974;12.082;2023-07-28T12:10:35;97663.51;;;28.82;46.56
62038;BME280;47991;42.974;12.082;2023-07-28T12:13:06;97662.60;;;28.89;46.51
62038;BME280;47991;42.974;12.082;2023-07-28T12:15:34;97651.96;;;28.74;46.73
62038;BME280;47991;42.974;12.082;2023-07-28T12:18:12;97646.58;;;28.73;47.19
62038;BME280;47991;42.974;12.082;2023-07-28T12:20:51;97648.84;;;28.77;46.81
62038;BME280;47991;42.974;12.082;2023-07-28T12:23:20;97649.83;;;28.70;47.04
62038;BME280;47991;42.974;12.082;2023-07-28T12:25:48;97646.42;;;28.76;46.45
62038;BME280;47991;42.974;12.082;2023-07-28T12:28:16;97646.80;;;28.94;47.40
62038;BME280;47991;42.974;12.082;2023-07-28T12:30:42;97652.42;;;29.25;46.36
62038;BME280;47991;42.974;12.082;2023-07-28T12:33:10;97651.98;;;29.36;45.71
62038;BME280;47991;42.974;12.082;2023-07-28T12:35:37;97652.27;;;29.60;46.07
62038;BME280;47991;42.974;12.082;2023-07-28T12:38:05;97648.73;;;29.73;45.62
62038;BME280;47991;42.974;12.082;2023-07-28T12:40:33;97648.81;;;29.75;45.54
62038;BME280;47991;42.974;12.082;2023-07-28T12:43:02;97650.33;;;29.31;45.85
62038;BME280;47991;42.974;12.082;2023-07-28T12:45:29;97641.78;;;29.37;45.65
62038;BME280;47991;42.974;12.082;2023-07-28T12:47:56;97646.59;;;29.37;46.47
62038;BME280;47991;42.974;12.082;2023-07-28T12:50:23;97650.75;;;28.96;46.48
62038;BME280;47991;42.974;12.082;2023-07-28T12:52:50;97653.95;;;29.23;46.49
62038;BME280;47991;42.974;12.082;2023-07-28T12:55:18;97651.84;;;29.42;46.27
62038;BME280;47991;42.974;12.082;2023-07-28T12:57:45;97657.96;;;29.58;46.41
62038;BME280;47991;42.974;12.082;2023-07-28T13:00:15;97664.11;;;29.48;45.70
62038;BME280;47991;42.974;12.082;2023-07-28T13:02:43;97662.84;;;29.28;45.74
62038;BME280;47991;42.974;12.082;2023-07-28T13:05:13;97659.43;;;29.22;45.55
62038;BME280;47991;42.974;12.082;2023-07-28T13:07:42;97660.89;;;28.96;45.96